Portada
METAR-TAF:

METAR-TAF

Aeropuertos :

Florianópolis, Santa Catarina, Brasil

Aeropuerto Internacional Hercílio Luz

latitud: 27-40S, longitud: 048-33W, altitud: 5 m

Observación

El informe se hizo hace 38 minutos, a las 18:00 UTC
Viento 11 kt del norte-noreste
Temperatura 29°C
Humedad 66%
Presión 1010 hPa
Visibilidad 10 km o más
Escasas nubes a una altura de 3500 ft

METAR: SBFL 161800Z 03011KT 9999 FEW035 29/22 Q1010

Hora: 16:38 (18:38 UTC)

Pronóstico

El informe se hizo hace 4 horas y 8 minutos, a las 14:30 UTC
Pronóstico válido del 16 a las 18 UTC al 17 a las 18 UTC
Viento 12 kt del norte
Visibilidad 10 km o más
Nubes dispersas a una altura de 3000 ft
Evolucionando progresivamente
del 16 a las 22 UTC al 16 a las 24 UTC
Viento 8 kt del norte
Cielo nuboso a una altura de 2500 ft

TAF: SBFL 161430Z 1618/1718 01012KT 9999 SCT030 TX29/1618Z TN22/1708Z BECMG 1622/1624 35008KT BKN025 RMK PEB

Observaciones y pronósticos meteorológicos de más de 4000 aeropuertos (mensajes METAR y TAF).

Los puntos amarillos y rojos representan las estaciones disponibles.

Ponga el ratón en el punto deseado para ver el nombre de la estación.

Haga clic para ver las observaciones y los pronósticos meteorológicos.

Para cambiar el mapa : haga clic en los botones verdes con una cruz de color negro para hacer un zoom, en el botón verde con un guión para alejar o en las flechas verdes para mapas adyacentes.


METAR-TAF: